sensor_id;sensor_type;location;lat;lon;timestamp;temperature;humidity
3288;DHT22;3260;52.438;13.502;2023-04-30T04:03:07;6.30;1.00
3288;DHT22;3260;52.438;13.502;2023-04-30T04:05:36;6.40;1.00
3288;DHT22;3260;52.438;13.502;2023-04-30T04:08:05;6.40;1.00
3288;DHT22;3260;52.438;13.502;2023-04-30T04:10:34;6.40;1.00
3288;DHT22;3260;52.438;13.502;2023-04-30T04:13:02;6.50;1.00
3288;DHT22;3260;52.438;13.502;2023-04-30T04:15:31;6.50;1.00
3288;DHT22;3260;52.438;13.502;2023-04-30T04:17:59;6.60;1.00
3288;DHT22;3260;52.438;13.502;2023-04-30T04:20:29;6.60;1.00
3288;DHT22;3260;52.438;13.502;2023-04-30T04:22:57;6.70;1.00
3288;DHT22;3260;52.438;13.502;2023-04-30T04:25:25;6.70;1.00
3288;DHT22;3260;52.438;13.502;2023-04-30T04:27:54;6.80;1.00
3288;DHT22;3260;52.438;13.502;2023-04-30T04:30:22;6.80;1.00
3288;DHT22;3260;52.438;13.502;2023-04-30T04:32:50;6.80;1.00
3288;DHT22;3260;52.438;13.502;2023-04-30T04:35:20;6.90;1.00
3288;DHT22;3260;52.438;13.502;2023-04-30T04:37:49;6.90;1.00
3288;DHT22;3260;52.438;13.502;2023-04-30T04:40:18;7.00;1.00
3288;DHT22;3260;52.438;13.502;2023-04-30T04:42:48;7.10;1.00
3288;DHT22;3260;52.438;13.502;2023-04-30T04:45:17;7.10;1.00
3288;DHT22;3260;52.438;13.502;2023-04-30T04:47:46;7.20;1.00
3288;DHT22;3260;52.438;13.502;2023-04-30T04:50:15;7.30;1.00
3288;DHT22;3260;52.438;13.502;2023-04-30T04:52:43;7.40;1.00
3288;DHT22;3260;52.438;13.502;2023-04-30T04:55:13;7.40;1.00
3288;DHT22;3260;52.438;13.502;2023-04-30T04:57:41;7.50;1.00
3288;DHT22;3260;52.438;13.502;2023-04-30T05:00:10;7.50;1.00
3288;DHT22;3260;52.438;13.502;2023-04-30T05:02:39;7.50;1.00
3288;DHT22;3260;52.438;13.502;2023-04-30T05:05:08;7.60;1.00
3288;DHT22;3260;52.438;13.502;2023-04-30T05:07:37;7.60;1.00
3288;DHT22;3260;52.438;13.502;2023-04-30T05:10:06;7.70;1.00
3288;DHT22;3260;52.438;13.502;2023-04-30T05:12:37;7.90;1.00
3288;DHT22;3260;52.438;13.502;2023-04-30T05:15:06;8.00;1.00
3288;DHT22;3260;52.438;13.502;2023-04-30T05:17:35;8.00;1.00
3288;DHT22;3260;52.438;13.502;2023-04-30T05:20:04;8.10;1.00
3288;DHT22;3260;52.438;13.502;2023-04-30T05:22:34;8.10;1.00
3288;DHT22;3260;52.438;13.502;2023-04-30T05:25:02;8.20;1.00
3288;DHT22;3260;52.438;13.502;2023-04-30T05:27:31;8.20;1.00
3288;DHT22;3260;52.438;13.502;2023-04-30T05:30:01;8.30;1.00
3288;DHT22;3260;52.438;13.502;2023-04-30T05:32:30;8.30;1.00
3288;DHT22;3260;52.438;13.502;2023-04-30T05:34:58;8.40;1.00
3288;DHT22;3260;52.438;13.502;2023-04-30T05:37:26;8.40;1.00
3288;DHT22;3260;52.438;13.502;2023-04-30T05:39:54;8.40;1.00
3288;DHT22;3260;52.438;13.502;2023-04-30T05:42:23;8.40;1.00
3288;DHT22;3260;52.438;13.502;2023-04-30T05:44:51;8.50;1.00
3288;DHT22;3260;52.438;13.502;2023-04-30T05:47:22;8.50;1.00
3288;DHT22;3260;52.438;13.502;2023-04-30T05:49:50;8.60;1.00
3288;DHT22;3260;52.438;13.502;2023-04-30T05:52:19;8.60;1.00
3288;DHT22;3260;52.438;13.502;2023-04-30T05:54:47;8.70;1.00
3288;DHT22;3260;52.438;13.502;2023-04-30T05:57:16;8.80;1.00
3288;DHT22;3260;52.438;13.502;2023-04-30T05:59:44;8.90;1.00
3288;DHT22;3260;52.438;13.502;2023-04-30T06:02:12;9.00;1.00
3288;DHT22;3260;52.438;13.502;2023-04-30T06:04:42;9.10;1.00
3288;DHT22;3260;52.438;13.502;2023-04-30T06:07:11;9.20;1.00
3288;DHT22;3260;52.438;13.502;2023-04-30T06:09:39;9.30;1.00
3288;DHT22;3260;52.438;13.502;2023-04-30T06:12:08;9.40;1.00
3288;DHT22;3260;52.438;13.502;2023-04-30T06:14:36;9.50;1.00
3288;DHT22;3260;52.438;13.502;2023-04-30T06:17:05;9.60;1.00
3288;DHT22;3260;52.438;13.502;2023-04-30T06:19:33;9.70;1.00
3288;DHT22;3260;52.438;13.502;2023-04-30T06:22:03;9.80;1.00
3288;DHT22;3260;52.438;13.502;2023-04-30T06:24:31;9.90;1.00
3288;DHT22;3260;52.438;13.502;2023-04-30T06:27:00;9.90;1.00
3288;DHT22;3260;52.438;13.502;2023-04-30T06:29:28;10.00;1.00
3288;DHT22;3260;52.438;13.502;2023-04-30T06:31:56;10.00;1.00
3288;DHT22;3260;52.438;13.502;2023-04-30T06:34:25;10.10;1.00
3288;DHT22;3260;52.438;13.502;2023-04-30T06:36:53;10.10;1.00
3288;DHT22;3260;52.438;13.502;2023-04-30T06:39:23;10.10;1.00
3288;DHT22;3260;52.438;13.502;2023-04-30T06:41:52;10.10;1.00
3288;DHT22;3260;52.438;13.502;2023-04-30T06:44:20;10.00;1.00
3288;DHT22;3260;52.438;13.502;2023-04-30T06:46:48;10.10;1.00
3288;DHT22;3260;52.438;13.502;2023-04-30T06:49:17;10.20;1.00
3288;DHT22;3260;52.438;13.502;2023-04-30T06:51:45;10.20;1.00
3288;DHT22;3260;52.438;13.502;2023-04-30T06:54:13;10.30;1.00
3288;DHT22;3260;52.438;13.502;2023-04-30T06:56:43;10.40;1.00
3288;DHT22;3260;52.438;13.502;2023-04-30T06:59:11;10.50;1.00
3288;DHT22;3260;52.438;13.502;2023-04-30T07:01:39;10.50;1.00
3288;DHT22;3260;52.438;13.502;2023-04-30T07:04:07;10.40;1.00
3288;DHT22;3260;52.438;13.502;2023-04-30T07:06:36;10.40;1.00
3288;DHT22;3260;52.438;13.502;2023-04-30T07:09:04;10.50;1.00
3288;DHT22;3260;52.438;13.502;2023-04-30T07:11:32;10.60;1.00
3288;DHT22;3260;52.438;13.502;2023-04-30T07:14:02;10.60;1.00
3288;DHT22;3260;52.438;13.502;2023-04-30T07:16:31;10.60;1.00
3288;DHT22;3260;52.438;13.502;2023-04-30T07:18:59;10.60;1.00
3288;DHT22;3260;52.438;13.502;2023-04-30T07:21:28;10.50;1.00
3288;DHT22;3260;52.438;13.502;2023-04-30T07:23:58;10.50;1.00
3288;DHT22;3260;52.438;13.502;2023-04-30T07:26:26;10.60;1.00
3288;DHT22;3260;52.438;13.502;2023-04-30T07:28:55;10.70;1.00
3288;DHT22;3260;52.438;13.502;2023-04-30T07:31:25;10.80;1.00
3288;DHT22;3260;52.438;13.502;2023-04-30T07:33:53;10.80;1.00
3288;DHT22;3260;52.438;13.502;2023-04-30T07:36:22;10.80;1.00
3288;DHT22;3260;52.438;13.502;2023-04-30T07:38:52;10.80;1.00
3288;DHT22;3260;52.438;13.502;2023-04-30T07:41:20;10.80;1.00
3288;DHT22;3260;52.438;13.502;2023-04-30T07:43:48;10.80;1.00
3288;DHT22;3260;52.438;13.502;2023-04-30T07:46:17;10.70;1.00
3288;DHT22;3260;52.438;13.502;2023-04-30T07:48:46;10.40;1.00
3288;DHT22;3260;52.438;13.502;2023-04-30T07:51:15;10.30;1.00
3288;DHT22;3260;52.438;13.502;2023-04-30T07:53:43;10.40;1.00
3288;DHT22;3260;52.438;13.502;2023-04-30T07:56:12;10.40;1.00
3288;DHT22;3260;52.438;13.502;2023-04-30T07:58:40;10.30;1.00
3288;DHT22;3260;52.438;13.502;2023-04-30T08:01:09;10.40;1.00
3288;DHT22;3260;52.438;13.502;2023-04-30T08:03:37;10.50;1.00
3288;DHT22;3260;52.438;13.502;2023-04-30T08:06:07;10.70;1.00
3288;DHT22;3260;52.438;13.502;2023-04-30T08:08:35;10.80;1.00
3288;DHT22;3260;52.438;13.502;2023-04-30T08:11:05;11.00;1.00
3288;DHT22;3260;52.438;13.502;2023-04-30T08:13:33;11.10;1.00
3288;DHT22;3260;52.438;13.502;2023-04-30T08:16:02;11.20;1.00
3288;DHT22;3260;52.438;13.502;2023-04-30T08:18:31;11.40;1.00
3288;DHT22;3260;52.438;13.502;2023-04-30T08:21:00;11.50;1.00
3288;DHT22;3260;52.438;13.502;2023-04-30T08:23:29;11.50;1.00
3288;DHT22;3260;52.438;13.502;2023-04-30T08:25:58;11.60;1.00
3288;DHT22;3260;52.438;13.502;2023-04-30T08:28:26;11.70;1.00
3288;DHT22;3260;52.438;13.502;2023-04-30T08:30:54;11.80;1.00
3288;DHT22;3260;52.438;13.502;2023-04-30T08:33:22;11.80;1.00
3288;DHT22;3260;52.438;13.502;2023-04-30T08:35:51;11.60;1.00
3288;DHT22;3260;52.438;13.502;2023-04-30T08:38:19;11.70;1.00
3288;DHT22;3260;52.438;13.502;2023-04-30T08:40:56;11.70;1.00
3288;DHT22;3260;52.438;13.502;2023-04-30T08:43:33;11.70;1.00
3288;DHT22;3260;52.438;13.502;2023-04-30T08:46:03;11.80;1.00
3288;DHT22;3260;52.438;13.502;2023-04-30T08:48:33;11.90;1.00
3288;DHT22;3260;52.438;13.502;2023-04-30T08:51:03;11.90;1.00
3288;DHT22;3260;52.438;13.502;2023-04-30T08:53:35;11.80;1.00
3288;DHT22;3260;52.438;13.502;2023-04-30T08:56:05;11.80;1.00
3288;DHT22;3260;52.438;13.502;2023-04-30T08:58:36;11.70;1.00
3288;DHT22;3260;52.438;13.502;2023-04-30T09:01:06;11.60;1.00
3288;DHT22;3260;52.438;13.502;2023-04-30T09:03:35;11.70;1.00
3288;DHT22;3260;52.438;13.502;2023-04-30T09:06:04;11.70;1.00
3288;DHT22;3260;52.438;13.502;2023-04-30T09:08:42;11.90;1.00
3288;DHT22;3260;52.438;13.502;2023-04-30T09:11:25;12.10;1.00
3288;DHT22;3260;52.438;13.502;2023-04-30T09:13:55;12.10;1.00
3288;DHT22;3260;52.438;13.502;2023-04-30T09:16:25;12.00;1.00
3288;DHT22;3260;52.438;13.502;2023-04-30T09:18:56;11.90;1.00
3288;DHT22;3260;52.438;13.502;2023-04-30T09:21:34;12.00;1.00
3288;DHT22;3260;52.438;13.502;2023-04-30T09:24:04;12.10;1.00
3288;DHT22;3260;52.438;13.502;2023-04-30T09:26:36;12.00;1.00
3288;DHT22;3260;52.438;13.502;2023-04-30T09:29:05;12.10;1.00
3288;DHT22;3260;52.438;13.502;2023-04-30T09:31:35;12.20;1.00
3288;DHT22;3260;52.438;13.502;2023-04-30T09:34:04;12.30;1.00
3288;DHT22;3260;52.438;13.502;2023-04-30T09:36:33;12.30;1.00
3288;DHT22;3260;52.438;13.502;2023-04-30T09:39:06;12.40;1.00
3288;DHT22;3260;52.438;13.502;2023-04-30T09:41:42;12.40;1.00
3288;DHT22;3260;52.438;13.502;2023-04-30T09:44:26;12.60;1.00
3288;DHT22;3260;52.438;13.502;2023-04-30T09:46:55;12.60;1.00
3288;DHT22;3260;52.438;13.502;2023-04-30T09:49:25;12.70;1.00
3288;DHT22;3260;52.438;13.502;2023-04-30T09:51:54;12.70;1.00
3288;DHT22;3260;52.438;13.502;2023-04-30T09:54:25;12.90;1.00
3288;DHT22;3260;52.438;13.502;2023-04-30T09:56:57;13.00;1.00
3288;DHT22;3260;52.438;13.502;2023-04-30T09:59:28;13.30;1.00
3288;DHT22;3260;52.438;13.502;2023-04-30T10:01:58;13.50;1.00
3288;DHT22;3260;52.438;13.502;2023-04-30T10:04:29;13.70;1.00
3288;DHT22;3260;52.438;13.502;2023-04-30T10:07:03;13.90;1.00
3288;DHT22;3260;52.438;13.502;2023-04-30T10:09:38;14.00;1.00
3288;DHT22;3260;52.438;13.502;2023-04-30T10:12:13;14.20;1.00
3288;DHT22;3260;52.438;13.502;2023-04-30T10:14:47;14.30;1.00
3288;DHT22;3260;52.438;13.502;2023-04-30T10:17:21;14.40;1.00
3288;DHT22;3260;52.438;13.502;2023-04-30T10:19:57;14.50;1.00
3288;DHT22;3260;52.438;13.502;2023-04-30T10:22:32;14.50;1.00
3288;DHT22;3260;52.438;13.502;2023-04-30T10:25:02;14.60;1.00
3288;DHT22;3260;52.438;13.502;2023-04-30T10:27:31;14.70;1.00
3288;DHT22;3260;52.438;13.502;2023-04-30T10:30:01;15.00;1.00
3288;DHT22;3260;52.438;13.502;2023-04-30T10:32:36;15.50;1.00
3288;DHT22;3260;52.438;13.502;2023-04-30T10:35:14;15.90;1.00
3288;DHT22;3260;52.438;13.502;2023-04-30T10:37:49;16.20;1.00
3288;DHT22;3260;52.438;13.502;2023-04-30T10:40:21;16.40;1.00
3288;DHT22;3260;52.438;13.502;2023-04-30T10:42:54;16.30;1.00
3288;DHT22;3260;52.438;13.502;2023-04-30T10:45:34;16.40;1.00
3288;DHT22;3260;52.438;13.502;2023-04-30T10:48:05;16.60;1.00
3288;DHT22;3260;52.438;13.502;2023-04-30T10:50:39;16.80;1.00
3288;DHT22;3260;52.438;13.502;2023-04-30T10:53:12;17.20;1.00
3288;DHT22;3260;52.438;13.502;2023-04-30T10:55:46;17.60;1.00
3288;DHT22;3260;52.438;13.502;2023-04-30T10:58:28;17.80;1.00
3288;DHT22;3260;52.438;13.502;2023-04-30T11:01:02;18.20;1.00
3288;DHT22;3260;52.438;13.502;2023-04-30T11:03:34;18.40;1.00
3288;DHT22;3260;52.438;13.502;2023-04-30T11:06:10;18.60;1.00
3288;DHT22;3260;52.438;13.502;2023-04-30T11:08:43;18.90;1.00
3288;DHT22;3260;52.438;13.502;2023-04-30T11:11:17;19.20;1.00
3288;DHT22;3260;52.438;13.502;2023-04-30T11:13:59;19.60;1.00
3288;DHT22;3260;52.438;13.502;2023-04-30T11:16:28;19.90;1.00
3288;DHT22;3260;52.438;13.502;2023-04-30T11:19:04;20.20;1.00
3288;DHT22;3260;52.438;13.502;2023-04-30T11:21:39;20.40;1.00
3288;DHT22;3260;52.438;13.502;2023-04-30T11:24:08;20.70;1.00
3288;DHT22;3260;52.438;13.502;2023-04-30T11:27:03;21.00;1.00
3288;DHT22;3260;52.438;13.502;2023-04-30T11:29:34;21.80;1.00
3288;DHT22;3260;52.438;13.502;2023-04-30T11:32:03;22.40;1.00
3288;DHT22;3260;52.438;13.502;2023-04-30T11:34:33;23.20;1.00
3288;DHT22;3260;52.438;13.502;2023-04-30T11:37:02;23.40;1.00
3288;DHT22;3260;52.438;13.502;2023-04-30T11:39:31;23.90;1.00
3288;DHT22;3260;52.438;13.502;2023-04-30T11:42:03;24.50;1.00
3288;DHT22;3260;52.438;13.502;2023-04-30T11:44:33;25.20;1.00
3288;DHT22;3260;52.438;13.502;2023-04-30T11:47:01;25.60;1.00
3288;DHT22;3260;52.438;13.502;2023-04-30T11:49:30;26.30;1.00
3288;DHT22;3260;52.438;13.502;2023-04-30T11:51:59;27.00;1.00
3288;DHT22;3260;52.438;13.502;2023-04-30T11:54:30;27.30;1.00
3288;DHT22;3260;52.438;13.502;2023-04-30T11:56:59;27.90;1.00
3288;DHT22;3260;52.438;13.502;2023-04-30T11:59:30;28.40;1.00
3288;DHT22;3260;52.438;13.502;2023-04-30T12:02:00;29.10;1.00
3288;DHT22;3260;52.438;13.502;2023-04-30T12:04:29;29.90;1.00
3288;DHT22;3260;52.438;13.502;2023-04-30T12:06:57;30.50;1.00
3288;DHT22;3260;52.438;13.502;2023-04-30T12:09:28;31.00;1.00
3288;DHT22;3260;52.438;13.502;2023-04-30T12:11:56;31.50;1.00
3288;DHT22;3260;52.438;13.502;2023-04-30T12:14:25;32.30;1.00
3288;DHT22;3260;52.438;13.502;2023-04-30T12:16:55;32.90;1.00
3288;DHT22;3260;52.438;13.502;2023-04-30T12:19:27;33.40;1.00
3288;DHT22;3260;52.438;13.502;2023-04-30T12:21:55;33.90;1.00
3288;DHT22;3260;52.438;13.502;2023-04-30T12:24:26;34.40;1.00
3288;DHT22;3260;52.438;13.502;2023-04-30T12:26:54;35.10;1.00
3288;DHT22;3260;52.438;13.502;2023-04-30T12:29:26;36.00;1.00
3288;DHT22;3260;52.438;13.502;2023-04-30T12:31:54;36.70;1.00
3288;DHT22;3260;52.438;13.502;2023-04-30T12:34:27;35.50;1.00
3288;DHT22;3260;52.438;13.502;2023-04-30T12:37:01;36.00;1.00
3288;DHT22;3260;52.438;13.502;2023-04-30T12:39:32;36.40;1.00
